createdAt,value
2022-12-14T00:00:00.096Z,992.09
2022-12-14T00:05:00.145Z,992.05
2022-12-14T00:10:00.094Z,992
2022-12-14T00:15:00.093Z,991.96
2022-12-14T00:20:00.095Z,991.77
2022-12-14T00:25:00.169Z,991.74
2022-12-14T00:30:00.112Z,991.67
2022-12-14T00:35:00.094Z,991.62
2022-12-14T00:40:00.106Z,991.63
2022-12-14T00:45:00.123Z,991.45
2022-12-14T00:50:00.105Z,991.4
2022-12-14T00:55:00.105Z,991.46
2022-12-14T01:00:00.152Z,991.36
2022-12-14T01:05:00.223Z,991.46
2022-12-14T01:10:00.106Z,991.38
2022-12-14T01:15:00.098Z,991.45
2022-12-14T01:20:00.104Z,991.35
2022-12-14T01:25:00.115Z,991.45
2022-12-14T01:30:00.126Z,991.5
2022-12-14T01:35:00.098Z,991.49
2022-12-14T01:40:00.108Z,991.41
2022-12-14T01:45:00.137Z,991.34
2022-12-14T01:50:00.111Z,991.26
2022-12-14T01:55:00.114Z,991.33
2022-12-14T02:00:05.318Z,991.33
2022-12-14T02:05:00.125Z,991.27
2022-12-14T02:10:00.123Z,991.18
2022-12-14T02:15:00.090Z,991.26
2022-12-14T02:20:00.092Z,991.09
2022-12-14T02:25:00.121Z,991.05
2022-12-14T02:30:00.135Z,990.99
2022-12-14T02:35:00.124Z,990.98
2022-12-14T02:40:00.082Z,990.91
2022-12-14T02:45:00.140Z,990.86
2022-12-14T02:50:00.090Z,990.83
2022-12-14T02:55:00.104Z,990.83
2022-12-14T03:00:00.112Z,990.73
2022-12-14T03:05:00.115Z,990.75
2022-12-14T03:10:00.110Z,990.63
2022-12-14T03:15:00.098Z,990.59
2022-12-14T03:20:00.102Z,990.57
2022-12-14T03:25:00.136Z,990.48
2022-12-14T03:30:00.097Z,990.39
2022-12-14T03:35:00.084Z,990.34
2022-12-14T03:40:00.100Z,990.27
2022-12-14T03:45:00.124Z,990.29
2022-12-14T03:50:00.097Z,990.31
2022-12-14T03:55:00.088Z,990.14
2022-12-14T04:00:00.096Z,990.21
2022-12-14T04:05:00.113Z,990.17
2022-12-14T04:10:00.093Z,990.09
2022-12-14T04:15:00.100Z,990.09
2022-12-14T04:20:00.103Z,989.94
2022-12-14T04:25:00.231Z,989.43
2022-12-14T04:30:00.117Z,989.22
2022-12-14T04:35:00.101Z,989.06
2022-12-14T04:40:00.151Z,988.99
2022-12-14T04:45:00.106Z,989
2022-12-14T04:50:00.106Z,988.99
2022-12-14T04:55:00.096Z,988.82
2022-12-14T05:00:00.113Z,988.77
2022-12-14T05:05:00.146Z,988.68
2022-12-14T05:10:00.090Z,988.65
2022-12-14T05:15:00.122Z,988.6
2022-12-14T05:20:00.109Z,988.53
2022-12-14T05:25:00.115Z,988.46
2022-12-14T05:30:00.097Z,988.48
2022-12-14T05:35:00.092Z,988.3
2022-12-14T05:40:00.091Z,988.18
2022-12-14T05:45:00.150Z,988.19
2022-12-14T05:50:00.096Z,988.15
2022-12-14T05:55:04.023Z,988.24
2022-12-14T06:00:00.108Z,988.17
2022-12-14T06:05:00.115Z,988.25
2022-12-14T06:10:00.099Z,988.21
2022-12-14T06:15:00.089Z,988.16
2022-12-14T06:20:00.099Z,988.08
2022-12-14T06:25:00.116Z,988
2022-12-14T06:30:00.107Z,987.92
2022-12-14T06:35:00.101Z,987.64
2022-12-14T06:40:00.098Z,987.71
2022-12-14T06:45:00.137Z,987.73
2022-12-14T06:50:00.099Z,987.75
2022-12-14T06:55:00.088Z,987.83
2022-12-14T07:00:00.177Z,987.85
2022-12-14T07:05:00.116Z,987.7
2022-12-14T07:10:00.091Z,987.73
2022-12-14T07:15:00.099Z,987.65
2022-12-14T07:20:00.115Z,987.62
2022-12-14T07:25:00.113Z,987.47
2022-12-14T07:30:00.113Z,987.39
2022-12-14T07:35:00.088Z,987.36
2022-12-14T07:40:00.113Z,987.29
2022-12-14T07:45:00.144Z,987.31
2022-12-14T07:50:00.095Z,987.25
2022-12-14T07:55:00.091Z,987.12
2022-12-14T08:00:00.141Z,987.12
2022-12-14T08:05:00.200Z,987.05
2022-12-14T08:10:00.117Z,986.86
2022-12-14T08:15:00.151Z,986.92
2022-12-14T08:20:00.105Z,986.83
2022-12-14T08:25:00.137Z,986.84
2022-12-14T08:30:00.139Z,986.79
2022-12-14T08:35:00.094Z,986.7
2022-12-14T08:40:00.102Z,986.63
2022-12-14T08:45:00.182Z,986.55
2022-12-14T08:50:00.084Z,986.48
2022-12-14T08:55:00.101Z,986.49
2022-12-14T09:00:01.940Z,986.38
2022-12-14T09:05:00.105Z,986.44
2022-12-14T09:10:00.098Z,986.38
2022-12-14T09:15:00.120Z,986.22
2022-12-14T09:20:00.084Z,986.29
2022-12-14T09:25:00.084Z,986.18
2022-12-14T09:30:00.125Z,986.12
2022-12-14T09:35:00.137Z,985.96
2022-12-14T09:40:00.082Z,986
2022-12-14T09:45:00.091Z,985.94
2022-12-14T09:50:00.141Z,985.9
2022-12-14T09:55:00.116Z,985.87
2022-12-14T10:00:00.109Z,985.87
2022-12-14T10:05:00.099Z,985.71
2022-12-14T10:10:00.113Z,985.76
2022-12-14T10:15:00.107Z,985.63
2022-12-14T10:20:00.110Z,985.67
2022-12-14T10:25:00.162Z,985.6
2022-12-14T10:30:00.109Z,985.49
2022-12-14T10:35:00.112Z,985.35
2022-12-14T10:40:00.152Z,985.38
2022-12-14T10:45:16.581Z,985.24
2022-12-14T10:50:00.117Z,985.28
2022-12-14T10:55:00.120Z,985.31
2022-12-14T11:00:09.797Z,985.36
2022-12-14T11:05:00.101Z,985.19
2022-12-14T11:10:00.097Z,985.21
2022-12-14T11:15:00.123Z,985.19
2022-12-14T11:20:00.103Z,985.19
2022-12-14T11:25:00.094Z,985.17
2022-12-14T11:30:00.134Z,985.11
2022-12-14T11:35:00.145Z,985.11
2022-12-14T11:40:00.115Z,985.09
2022-12-14T11:45:00.095Z,984.95
2022-12-14T11:50:00.096Z,984.96
2022-12-14T11:55:00.119Z,984.96
2022-12-14T12:00:00.101Z,984.89
2022-12-14T12:05:00.134Z,984.84
2022-12-14T12:10:00.088Z,984.75
2022-12-14T12:15:00.090Z,984.95
2022-12-14T12:20:00.100Z,984.93
2022-12-14T12:25:28.698Z,984.84
2022-12-14T12:30:00.085Z,984.77
2022-12-14T12:35:10.898Z,984.74
2022-12-14T12:40:00.116Z,984.75
2022-12-14T12:45:00.112Z,984.62
2022-12-14T12:50:00.141Z,984.55
2022-12-14T12:55:00.113Z,984.54
2022-12-14T13:00:00.131Z,984.55
2022-12-14T13:05:10.792Z,984.62
2022-12-14T13:10:05.156Z,984.57
2022-12-14T13:15:00.125Z,984.68
2022-12-14T13:20:00.491Z,984.47
2022-12-14T13:25:00.349Z,984.61
2022-12-14T13:30:00.111Z,984.61
2022-12-14T13:35:00.102Z,984.49
2022-12-14T13:40:00.096Z,984.49
2022-12-14T13:45:00.126Z,984.51
2022-12-14T13:50:34.075Z,984.44
2022-12-14T13:55:00.087Z,984.5
2022-12-14T14:00:00.134Z,984.48
2022-12-14T14:05:00.105Z,984.37
2022-12-14T14:10:00.091Z,984.28
2022-12-14T14:15:00.131Z,984.16
2022-12-14T14:20:00.131Z,984.18
2022-12-14T14:25:00.106Z,984.08
2022-12-14T14:30:00.116Z,984.06
2022-12-14T14:35:00.119Z,983.87
2022-12-14T14:40:07.520Z,983.84
2022-12-14T14:45:00.114Z,983.94
2022-12-14T14:50:00.099Z,983.92
2022-12-14T14:55:28.153Z,984
2022-12-14T15:00:00.204Z,984.01
2022-12-14T15:05:10.999Z,984.11
2022-12-14T15:10:00.121Z,984.12
2022-12-14T15:15:00.097Z,984.11
2022-12-14T15:20:00.125Z,984.17
2022-12-14T15:25:00.095Z,984.22
2022-12-14T15:30:00.225Z,984.17
2022-12-14T15:35:00.106Z,984.13
2022-12-14T15:40:00.268Z,984.17
2022-12-14T15:45:00.093Z,984.14
2022-12-14T15:50:03.164Z,984.12
2022-12-14T15:55:00.096Z,984.18
2022-12-14T16:00:00.144Z,984.27
2022-12-14T16:05:00.144Z,984.21
2022-12-14T16:10:00.108Z,984.34
2022-12-14T16:15:00.159Z,984.34
2022-12-14T16:20:00.878Z,984.32
2022-12-14T16:25:00.093Z,984.39
2022-12-14T16:30:00.111Z,984.34
2022-12-14T16:35:00.098Z,984.37
2022-12-14T16:40:00.136Z,984.4
2022-12-14T16:45:00.136Z,984.44
2022-12-14T16:50:00.210Z,984.33
2022-12-14T16:55:00.291Z,984.43
2022-12-14T17:00:00.161Z,984.36
2022-12-14T17:05:00.164Z,984.41
2022-12-14T17:10:00.146Z,984.57
2022-12-14T17:15:00.100Z,984.52
2022-12-14T17:20:00.143Z,984.58
2022-12-14T17:25:00.100Z,984.53
2022-12-14T17:30:00.086Z,984.61
2022-12-14T17:35:00.117Z,984.66
2022-12-14T17:40:00.122Z,984.72
2022-12-14T17:45:00.099Z,984.64
2022-12-14T17:50:00.105Z,984.64
2022-12-14T17:55:00.128Z,984.67
2022-12-14T18:00:00.134Z,984.66
2022-12-14T18:05:00.119Z,984.65
2022-12-14T18:10:00.107Z,984.68
2022-12-14T18:15:00.088Z,984.74
2022-12-14T18:20:00.121Z,984.75
2022-12-14T18:25:00.084Z,984.72
2022-12-14T18:30:00.119Z,984.59
2022-12-14T18:35:00.134Z,984.64
2022-12-14T18:40:00.136Z,984.75
2022-12-14T18:45:00.091Z,984.77
2022-12-14T18:50:00.100Z,984.73
2022-12-14T18:55:00.087Z,984.73
2022-12-14T19:00:00.221Z,984.68
2022-12-14T19:05:00.099Z,984.74
2022-12-14T19:10:00.087Z,984.95
2022-12-14T19:15:00.114Z,984.97
2022-12-14T19:20:00.128Z,984.94
2022-12-14T19:25:00.111Z,985.11
2022-12-14T19:30:00.105Z,984.98
2022-12-14T19:35:00.107Z,985.1
2022-12-14T19:40:00.127Z,985.1
2022-12-14T19:45:00.084Z,985.13
2022-12-14T19:50:00.094Z,985.12
2022-12-14T19:55:00.125Z,985.14
2022-12-14T20:00:00.165Z,985.17
2022-12-14T20:05:00.151Z,985.23
2022-12-14T20:10:00.108Z,985.19
2022-12-14T20:15:00.118Z,985.19
2022-12-14T20:20:00.168Z,985.14
2022-12-14T20:25:00.130Z,985.2
2022-12-14T20:30:00.126Z,985.24
2022-12-14T20:35:00.088Z,985.26
2022-12-14T20:40:00.125Z,985.4
2022-12-14T20:45:03.882Z,985.52
2022-12-14T20:50:00.093Z,985.55
2022-12-14T20:55:00.109Z,985.6
2022-12-14T21:00:00.246Z,985.65
2022-12-14T21:05:00.136Z,985.74
2022-12-14T21:10:00.105Z,985.75
2022-12-14T21:15:00.096Z,985.83
2022-12-14T21:20:00.114Z,985.77
2022-12-14T21:25:03.393Z,986.31
2022-12-14T21:30:00.170Z,986.36
2022-12-14T21:35:00.121Z,986.41
2022-12-14T21:40:00.143Z,986.38
2022-12-14T21:45:00.096Z,986.44
2022-12-14T21:50:00.096Z,986.52
2022-12-14T21:55:00.106Z,986.48
2022-12-14T22:00:00.151Z,986.45
2022-12-14T22:05:00.115Z,986.51
2022-12-14T22:10:00.131Z,986.68
2022-12-14T22:15:00.103Z,986.61
2022-12-14T22:20:00.104Z,986.69
2022-12-14T22:25:00.087Z,986.67
2022-12-14T22:30:00.143Z,986.71
2022-12-14T22:35:00.092Z,986.73
2022-12-14T22:40:00.138Z,986.78
2022-12-14T22:45:00.086Z,986.76
2022-12-14T22:50:00.144Z,986.92
2022-12-14T22:55:00.095Z,986.79
2022-12-14T23:00:00.162Z,986.91
2022-12-14T23:05:00.130Z,986.9
2022-12-14T23:10:00.090Z,986.9
2022-12-14T23:15:00.091Z,986.96
2022-12-14T23:20:04.541Z,987.05
2022-12-14T23:25:00.093Z,987.04
2022-12-14T23:30:00.144Z,986.93
2022-12-14T23:35:00.124Z,986.87
2022-12-14T23:40:00.164Z,987.03
2022-12-14T23:45:00.090Z,986.95
2022-12-14T23:50:00.121Z,987.01
2022-12-14T23:55:00.093Z,987.15
